createdAt,value
2023-02-15T00:02:25.333Z,29.05
2023-02-15T00:05:13.071Z,31.20
2023-02-15T00:08:00.569Z,29.83
2023-02-15T00:10:48.015Z,22.50
2023-02-15T00:13:39.757Z,24.05
2023-02-15T00:16:27.379Z,31.13
2023-02-15T00:19:17.999Z,24.63
2023-02-15T00:22:05.565Z,26.83
2023-02-15T00:24:52.991Z,24.77
2023-02-15T00:27:40.628Z,28.60
2023-02-15T00:30:29.667Z,21.95
2023-02-15T00:33:17.325Z,23.92
2023-02-15T00:36:07.304Z,30.27
2023-02-15T00:38:54.720Z,37.08
2023-02-15T00:41:42.509Z,24.70
2023-02-15T00:44:30.247Z,29.25
2023-02-15T00:47:19.184Z,28.15
2023-02-15T00:50:08.413Z,24.13
2023-02-15T00:52:56.179Z,21.98
2023-02-15T00:55:44.038Z,23.27
2023-02-15T00:58:31.768Z,20.88
2023-02-15T01:01:22.476Z,22.65
2023-02-15T01:04:11.503Z,24.30
2023-02-15T01:06:59.055Z,21.13
2023-02-15T01:09:46.895Z,24.45
2023-02-15T01:12:34.579Z,22.90
2023-02-15T01:15:22.890Z,25.08
2023-02-15T01:18:10.552Z,24.02
2023-02-15T01:20:59.910Z,27.05
2023-02-15T01:23:47.726Z,25.33
2023-02-15T01:26:35.463Z,20.83
2023-02-15T01:29:23.240Z,20.33
2023-02-15T01:32:10.967Z,23.38
2023-02-15T01:34:58.813Z,26.33
2023-02-15T01:37:47.806Z,19.90
2023-02-15T01:40:35.858Z,21.70
2023-02-15T01:43:23.625Z,22.05
2023-02-15T01:46:16.396Z,24.88
2023-02-15T01:49:12.447Z,23.45
2023-02-15T01:52:00.018Z,24.15
2023-02-15T01:54:50.792Z,22.27
2023-02-15T01:57:39.075Z,24.33
2023-02-15T02:00:27.081Z,20.60
2023-02-15T02:03:15.508Z,22.58
2023-02-15T02:06:03.467Z,22.70
2023-02-15T02:08:51.797Z,22.40
2023-02-15T02:11:42.950Z,19.85
2023-02-15T02:14:31.735Z,20.27
2023-02-15T02:17:31.459Z,26.98
2023-02-15T02:21:07.032Z,28.63
2023-02-15T02:24:34.214Z,20.60
2023-02-15T02:27:40.986Z,24.08
2023-02-15T02:30:59.362Z,21.38
2023-02-15T02:34:06.469Z,20.83
2023-02-15T02:37:00.091Z,25.45
2023-02-15T02:39:57.639Z,18.25
2023-02-15T02:42:56.943Z,21.83
2023-02-15T02:45:55.377Z,20.75
2023-02-15T02:48:43.634Z,22.33
2023-02-15T02:51:32.856Z,20.88
2023-02-15T02:54:21.021Z,22.88
2023-02-15T02:57:12.030Z,25.25
2023-02-15T03:00:06.356Z,22.17
2023-02-15T03:03:00.347Z,26.05
2023-02-15T03:05:52.539Z,23.10
2023-02-15T03:08:48.499Z,28.48
2023-02-15T03:11:36.504Z,22.05
2023-02-15T03:14:24.020Z,19.75
2023-02-15T03:17:15.915Z,18.50
2023-02-15T03:20:11.267Z,22.63
2023-02-15T03:23:06.496Z,18.67
2023-02-15T03:26:02.093Z,25.45
2023-02-15T03:28:57.646Z,20.92
2023-02-15T03:31:55.821Z,21.67
2023-02-15T03:34:43.518Z,22.52
2023-02-15T03:37:39.932Z,23.42
2023-02-15T03:40:52.619Z,18.67
2023-02-15T03:43:50.088Z,22.15
2023-02-15T03:46:46.287Z,26.90
2023-02-15T03:49:44.541Z,19.98
2023-02-15T03:52:36.242Z,19.65
2023-02-15T03:55:24.549Z,20.45
2023-02-15T03:58:35.496Z,24.05
2023-02-15T04:01:52.927Z,20.35
2023-02-15T04:04:45.197Z,26.23
2023-02-15T04:07:32.697Z,23.73
2023-02-15T04:10:37.930Z,20.35
2023-02-15T04:13:32.427Z,24.80
2023-02-15T04:16:19.230Z,23.40
2023-02-15T04:19:25.762Z,21.25
2023-02-15T04:22:31.519Z,21.98
2023-02-15T04:25:19.522Z,17.75
2023-02-15T04:28:08.545Z,21.65
2023-02-15T04:30:56.004Z,21.15
2023-02-15T04:33:44.702Z,21.15
2023-02-15T04:36:33.663Z,18.55
2023-02-15T04:39:21.334Z,19.65
2023-02-15T04:42:09.043Z,20.80
2023-02-15T04:44:56.577Z,21.85
2023-02-15T04:47:44.824Z,25.08
2023-02-15T04:50:33.399Z,22.83
2023-02-15T04:53:22.757Z,22.92
2023-02-15T04:56:10.250Z,23.35
2023-02-15T04:58:57.883Z,22.35
2023-02-15T05:01:45.514Z,18.73
2023-02-15T05:04:34.179Z,24.10
2023-02-15T05:07:22.227Z,23.83
2023-02-15T05:10:11.920Z,20.55
2023-02-15T05:12:59.859Z,18.65
2023-02-15T05:15:50.878Z,21.17
2023-02-15T05:18:38.963Z,21.20
2023-02-15T05:21:26.559Z,21.40
2023-02-15T05:24:31.568Z,21.00
2023-02-15T05:27:38.419Z,18.25
2023-02-15T05:30:26.163Z,20.75
2023-02-15T05:33:14.026Z,17.75
2023-02-15T05:36:02.615Z,16.95
2023-02-15T05:38:50.386Z,20.13
2023-02-15T05:41:38.615Z,17.38
2023-02-15T05:44:27.664Z,22.17
2023-02-15T05:47:15.250Z,16.67
2023-02-15T05:50:03.190Z,20.23
2023-02-15T05:52:52.558Z,20.63
2023-02-15T05:55:41.090Z,21.48
2023-02-15T05:58:29.806Z,17.15
2023-02-15T06:01:22.788Z,16.85
2023-02-15T06:07:00.196Z,17.25
2023-02-15T06:09:48.916Z,18.58
2023-02-15T06:12:37.537Z,19.52
2023-02-15T06:15:26.340Z,20.73
2023-02-15T06:18:16.378Z,21.23
2023-02-15T06:21:05.104Z,21.80
2023-02-15T06:23:53.817Z,21.60
2023-02-15T06:26:42.851Z,20.67
2023-02-15T06:29:31.580Z,18.60
2023-02-15T06:32:20.388Z,21.98
2023-02-15T06:35:11.189Z,21.00
2023-02-15T06:37:59.702Z,22.25
2023-02-15T06:40:48.610Z,22.58
2023-02-15T06:43:37.574Z,23.77
2023-02-15T06:46:27.290Z,19.50
2023-02-15T06:49:16.151Z,20.45
2023-02-15T06:52:06.653Z,21.90
2023-02-15T06:54:55.630Z,22.63
2023-02-15T06:57:44.502Z,20.60
2023-02-15T07:00:33.233Z,21.60
2023-02-15T07:03:21.978Z,23.38
2023-02-15T07:06:11.757Z,20.35
2023-02-15T07:09:01.965Z,24.08
2023-02-15T07:12:08.229Z,20.95
2023-02-15T07:14:56.925Z,25.00
2023-02-15T07:17:46.815Z,22.02
2023-02-15T07:20:37.557Z,22.35
2023-02-15T07:23:26.543Z,20.35
2023-02-15T07:26:16.708Z,22.05
2023-02-15T07:29:05.456Z,22.20
2023-02-15T07:31:54.455Z,21.10
2023-02-15T07:34:44.029Z,20.85
2023-02-15T07:37:32.803Z,23.40
2023-02-15T07:40:24.218Z,20.13
2023-02-15T07:43:15.194Z,19.38
2023-02-15T07:46:05.344Z,21.77
2023-02-15T07:48:53.928Z,23.75
2023-02-15T07:51:42.955Z,22.70
2023-02-15T07:54:31.531Z,24.50
2023-02-15T07:57:20.333Z,21.15
2023-02-15T08:00:12.598Z,19.27
2023-02-15T08:03:16.371Z,24.60
2023-02-15T08:06:04.991Z,25.52
2023-02-15T08:08:54.055Z,26.77
2023-02-15T08:11:43.631Z,23.58
2023-02-15T08:14:33.293Z,28.13
2023-02-15T08:17:23.780Z,27.80
2023-02-15T08:20:13.256Z,24.23
2023-02-15T08:23:01.913Z,23.65
2023-02-15T08:25:50.633Z,20.67
2023-02-15T08:28:40.020Z,25.40
2023-02-15T08:31:29.226Z,24.30
2023-02-15T08:34:21.200Z,20.95
2023-02-15T08:37:10.336Z,20.85
2023-02-15T08:39:58.833Z,23.35
2023-02-15T08:42:47.580Z,25.30
2023-02-15T08:45:36.662Z,20.33
2023-02-15T08:48:25.347Z,24.92
2023-02-15T08:51:17.101Z,24.55
2023-02-15T08:54:07.674Z,23.33
2023-02-15T08:56:56.433Z,21.70
2023-02-15T08:59:44.961Z,23.52
2023-02-15T09:02:33.617Z,20.42
2023-02-15T09:05:22.100Z,23.08
2023-02-15T09:08:12.249Z,25.23
2023-02-15T09:11:10.513Z,24.23
2023-02-15T09:14:00.785Z,24.23
2023-02-15T09:16:52.554Z,22.27
2023-02-15T09:19:41.458Z,22.60
2023-02-15T09:22:31.976Z,19.95
2023-02-15T09:25:22.448Z,21.95
2023-02-15T09:28:11.892Z,23.77
2023-02-15T09:31:06.255Z,22.67
2023-02-15T09:33:55.268Z,19.38
2023-02-15T09:36:44.218Z,22.73
2023-02-15T09:39:39.803Z,22.65
2023-02-15T09:42:53.887Z,22.27
2023-02-15T09:45:57.532Z,20.45
2023-02-15T09:48:48.656Z,24.27
2023-02-15T09:52:01.942Z,20.70
2023-02-15T09:55:07.289Z,23.90
2023-02-15T09:58:09.208Z,22.48
2023-02-15T10:01:05.481Z,22.25
2023-02-15T10:04:07.121Z,21.00
2023-02-15T10:07:06.438Z,28.75
2023-02-15T10:10:09.870Z,22.95
2023-02-15T10:13:15.859Z,22.23
2023-02-15T10:16:22.447Z,26.27
2023-02-15T10:19:18.218Z,23.85
2023-02-15T10:22:23.262Z,23.75
2023-02-15T10:25:26.679Z,24.27
2023-02-15T10:28:20.757Z,24.15
2023-02-15T10:31:16.452Z,23.13
2023-02-15T10:34:18.310Z,26.00
2023-02-15T10:37:26.336Z,22.95
2023-02-15T10:40:24.188Z,24.45
2023-02-15T10:43:29.009Z,22.45
2023-02-15T10:46:35.784Z,25.58
2023-02-15T10:49:50.530Z,26.38
2023-02-15T10:52:54.783Z,21.25
2023-02-15T10:55:53.878Z,19.75
2023-02-15T10:59:09.197Z,22.05
2023-02-15T11:02:15.046Z,24.08
2023-02-15T11:05:27.152Z,22.92
2023-02-15T11:08:16.127Z,22.27
2023-02-15T11:11:07.864Z,24.00
2023-02-15T11:14:03.190Z,22.60
2023-02-15T11:16:55.966Z,20.42
2023-02-15T11:19:53.359Z,24.48
2023-02-15T11:22:42.307Z,21.15
2023-02-15T11:25:35.700Z,21.98
2023-02-15T11:28:33.071Z,22.75
2023-02-15T11:31:41.629Z,19.30
2023-02-15T11:34:37.396Z,21.33
2023-02-15T11:37:33.486Z,24.63
2023-02-15T11:40:26.781Z,22.63
2023-02-15T11:43:22.749Z,24.23
2023-02-15T11:46:15.899Z,21.35
2023-02-15T11:52:02.809Z,22.08
2023-02-15T11:54:54.462Z,24.33
2023-02-15T11:57:48.027Z,20.98
2023-02-15T12:00:40.237Z,23.58
2023-02-15T12:03:45.478Z,21.15
2023-02-15T12:06:40.051Z,20.70
2023-02-15T12:09:36.668Z,19.50
2023-02-15T12:12:27.017Z,21.83
2023-02-15T12:15:16.061Z,23.05
2023-02-15T12:18:04.383Z,24.02
2023-02-15T12:20:52.839Z,20.45
2023-02-15T12:23:57.208Z,22.85
2023-02-15T12:26:45.416Z,18.98
2023-02-15T12:29:44.022Z,23.50
2023-02-15T12:32:37.269Z,21.23
2023-02-15T12:35:32.484Z,18.55
2023-02-15T12:38:28.418Z,20.05
2023-02-15T12:41:28.385Z,20.23
2023-02-15T12:44:24.323Z,18.55
2023-02-15T12:47:28.849Z,22.13
2023-02-15T12:50:26.876Z,22.15
2023-02-15T12:53:21.435Z,23.92
2023-02-15T12:56:12.265Z,24.35
2023-02-15T12:59:09.001Z,18.25
2023-02-15T13:01:57.169Z,25.80
2023-02-15T13:04:51.404Z,20.05
2023-02-15T13:07:46.503Z,18.92
2023-02-15T13:10:43.231Z,19.08
2023-02-15T13:13:34.216Z,26.67
2023-02-15T13:16:33.021Z,16.25
2023-02-15T13:19:31.578Z,16.58
2023-02-15T13:22:23.881Z,23.38
2023-02-15T13:25:19.753Z,22.25
2023-02-15T13:28:12.657Z,18.05
2023-02-15T13:33:55.271Z,21.88
2023-02-15T13:36:53.849Z,19.17
2023-02-15T13:39:48.548Z,19.80
2023-02-15T13:42:43.437Z,21.08
2023-02-15T13:45:41.723Z,24.00
2023-02-15T13:48:48.462Z,24.90
2023-02-15T13:51:50.885Z,19.55
2023-02-15T13:55:08.792Z,27.02
2023-02-15T13:58:21.766Z,20.98
2023-02-15T14:01:20.259Z,21.55
2023-02-15T14:04:41.814Z,23.02
2023-02-15T14:07:55.113Z,19.60
2023-02-15T14:14:32.059Z,23.00
2023-02-15T14:17:30.929Z,25.95
2023-02-15T14:20:30.487Z,27.58
2023-02-15T14:23:39.601Z,23.70
2023-02-15T14:26:42.963Z,23.83
2023-02-15T14:29:49.766Z,23.35
2023-02-15T14:32:44.442Z,25.35
2023-02-15T14:35:33.355Z,23.48
2023-02-15T14:38:50.466Z,24.73
2023-02-15T14:41:49.240Z,26.10
2023-02-15T14:44:45.084Z,22.65
2023-02-15T14:47:39.350Z,23.73
2023-02-15T14:50:47.882Z,22.42
2023-02-15T14:53:40.770Z,24.50
2023-02-15T14:56:29.768Z,23.23
2023-02-15T14:59:21.672Z,24.05
2023-02-15T15:02:17.387Z,23.95
2023-02-15T15:05:11.783Z,23.80
2023-02-15T15:08:03.485Z,22.95
2023-02-15T15:10:52.845Z,24.60
2023-02-15T15:13:55.652Z,21.63
2023-02-15T15:16:54.494Z,21.17
2023-02-15T15:20:15.330Z,23.88
2023-02-15T15:23:41.311Z,21.45
2023-02-15T15:26:49.516Z,22.80
2023-02-15T15:29:44.323Z,22.98
2023-02-15T15:32:36.735Z,24.30
2023-02-15T15:35:30.179Z,24.17
2023-02-15T15:38:36.258Z,25.15
2023-02-15T15:41:41.839Z,24.15
2023-02-15T15:45:04.413Z,25.42
2023-02-15T15:48:07.599Z,23.98
2023-02-15T15:50:58.747Z,22.17
2023-02-15T15:53:52.146Z,24.10
2023-02-15T15:56:45.153Z,24.85
2023-02-15T15:59:34.882Z,24.50
2023-02-15T16:02:24.604Z,23.58
2023-02-15T16:05:14.570Z,25.83
2023-02-15T16:08:02.272Z,22.73
2023-02-15T16:10:50.234Z,22.15
2023-02-15T16:13:41.900Z,23.10
2023-02-15T16:16:31.916Z,22.25
2023-02-15T16:19:24.146Z,23.27
2023-02-15T16:22:16.214Z,27.45
2023-02-15T16:25:36.696Z,24.75
2023-02-15T16:28:24.976Z,24.80
2023-02-15T16:31:17.682Z,24.70
2023-02-15T16:34:19.419Z,25.50
2023-02-15T16:37:28.250Z,23.60
2023-02-15T16:40:46.184Z,24.95
2023-02-15T16:43:34.916Z,27.33
2023-02-15T16:46:30.339Z,22.90
2023-02-15T16:49:23.847Z,22.98
2023-02-15T16:52:21.248Z,19.40
2023-02-15T16:55:21.345Z,22.48
2023-02-15T16:58:17.830Z,25.38
2023-02-15T17:01:10.293Z,24.88
2023-02-15T17:07:04.732Z,25.58
2023-02-15T17:09:54.587Z,27.05
2023-02-15T17:12:47.983Z,25.50
2023-02-15T17:15:38.331Z,25.90
2023-02-15T17:18:28.325Z,23.95
2023-02-15T17:21:34.958Z,27.13
2023-02-15T17:24:37.688Z,23.88
2023-02-15T17:27:30.379Z,28.70
2023-02-15T17:30:28.682Z,29.33
2023-02-15T17:33:30.050Z,31.38
2023-02-15T17:36:23.273Z,31.30
2023-02-15T17:42:11.817Z,35.65
2023-02-15T17:44:59.477Z,34.85
2023-02-15T17:47:50.492Z,39.22
2023-02-15T17:50:39.054Z,33.75
2023-02-15T17:53:27.604Z,40.40
2023-02-15T17:56:14.270Z,35.28
2023-02-15T17:59:07.460Z,34.25
2023-02-15T18:02:12.558Z,36.97
2023-02-15T18:05:18.822Z,36.58
2023-02-15T18:08:28.306Z,39.22
2023-02-15T18:11:33.532Z,35.80
2023-02-15T18:14:22.367Z,29.67
2023-02-15T18:17:13.940Z,35.30
2023-02-15T18:20:05.464Z,36.00
2023-02-15T18:22:54.303Z,38.25
2023-02-15T18:25:43.062Z,36.75
2023-02-15T18:28:30.702Z,43.72
2023-02-15T18:31:23.244Z,43.67
2023-02-15T18:34:24.469Z,40.15
2023-02-15T18:37:19.491Z,43.28
2023-02-15T18:40:16.689Z,31.52
2023-02-15T18:43:04.181Z,44.22
2023-02-15T18:45:51.702Z,34.75
2023-02-15T18:48:40.483Z,36.63
2023-02-15T18:51:28.477Z,37.53
2023-02-15T18:54:23.333Z,31.13
2023-02-15T18:57:14.805Z,40.15
2023-02-15T19:00:02.632Z,32.25
2023-02-15T19:02:50.691Z,32.72
2023-02-15T19:05:39.528Z,40.85
2023-02-15T19:08:27.272Z,39.40
2023-02-15T19:11:18.722Z,44.17
2023-02-15T19:14:23.754Z,41.50
2023-02-15T19:17:18.266Z,43.28
2023-02-15T19:20:06.920Z,40.30
2023-02-15T19:23:00.371Z,45.78
2023-02-15T19:25:50.662Z,45.08
2023-02-15T19:28:38.243Z,48.55
2023-02-15T19:31:25.797Z,43.15
2023-02-15T19:34:19.776Z,49.88
2023-02-15T19:37:12.852Z,44.63
2023-02-15T19:40:03.168Z,50.53
2023-02-15T19:42:51.856Z,52.72
2023-02-15T19:45:39.663Z,54.58
2023-02-15T19:48:27.254Z,46.83
2023-02-15T19:54:37.107Z,51.03
2023-02-15T19:57:27.594Z,45.20
2023-02-15T20:00:21.913Z,52.03
2023-02-15T20:03:10.400Z,52.28
2023-02-15T20:05:58.395Z,51.03
2023-02-15T20:08:46.920Z,57.72
2023-02-15T20:11:44.003Z,51.75
2023-02-15T20:14:35.034Z,51.15
2023-02-15T20:17:35.381Z,50.33
2023-02-15T20:20:36.994Z,40.83
2023-02-15T20:23:41.046Z,54.38
2023-02-15T20:26:34.180Z,54.05
2023-02-15T20:32:25.143Z,51.15
2023-02-15T20:35:18.879Z,54.25
2023-02-15T20:38:09.535Z,43.55
2023-02-15T20:41:20.588Z,46.10
2023-02-15T20:44:24.563Z,54.15
2023-02-15T20:47:15.170Z,53.85
2023-02-15T20:50:13.339Z,50.15
2023-02-15T20:53:16.837Z,53.88
2023-02-15T20:56:07.597Z,45.45
2023-02-15T20:59:03.896Z,47.75
2023-02-15T21:02:00.762Z,50.75
2023-02-15T21:04:48.786Z,48.25
2023-02-15T21:07:43.644Z,52.08
2023-02-15T21:10:35.318Z,50.28
2023-02-15T21:13:36.717Z,47.00
2023-02-15T21:16:24.849Z,43.30
2023-02-15T21:19:20.592Z,46.03
2023-02-15T21:22:11.205Z,55.03
2023-02-15T21:25:08.368Z,47.53
2023-02-15T21:28:08.383Z,44.20
2023-02-15T21:30:59.199Z,43.08
2023-02-15T21:33:49.369Z,38.67
2023-02-15T21:36:39.699Z,42.42
2023-02-15T21:39:37.774Z,43.20
2023-02-15T21:42:47.051Z,45.45
2023-02-15T21:45:52.372Z,45.33
2023-02-15T21:48:43.512Z,36.22
2023-02-15T21:51:52.159Z,44.15
2023-02-15T21:54:40.351Z,46.88
2023-02-15T21:57:29.822Z,49.00
2023-02-15T22:00:20.764Z,40.60
2023-02-15T22:03:08.400Z,40.95
2023-02-15T22:05:56.151Z,40.25
2023-02-15T22:08:44.623Z,47.72
2023-02-15T22:11:32.634Z,42.38
2023-02-15T22:14:39.817Z,41.03
2023-02-15T22:17:30.036Z,46.17
2023-02-15T22:20:21.555Z,37.17
2023-02-15T22:23:09.767Z,39.78
2023-02-15T22:26:03.920Z,42.97
2023-02-15T22:28:54.680Z,42.60
2023-02-15T22:31:44.330Z,40.88
2023-02-15T22:34:36.168Z,37.28
2023-02-15T22:37:23.995Z,39.05
2023-02-15T22:40:16.714Z,37.83
2023-02-15T22:43:07.030Z,46.58
2023-02-15T22:46:02.993Z,46.80
2023-02-15T22:48:52.868Z,42.03
2023-02-15T22:51:40.661Z,41.13
2023-02-15T22:54:29.056Z,41.65
2023-02-15T22:57:24.248Z,44.53
2023-02-15T23:00:19.582Z,41.80
2023-02-15T23:03:17.839Z,42.67
2023-02-15T23:06:09.025Z,40.55
2023-02-15T23:09:00.670Z,41.38
2023-02-15T23:11:49.466Z,41.58
2023-02-15T23:14:38.351Z,41.58
2023-02-15T23:17:29.323Z,41.72
2023-02-15T23:20:17.272Z,37.28
2023-02-15T23:23:06.616Z,36.85
2023-02-15T23:25:54.556Z,37.38
2023-02-15T23:28:42.773Z,46.00
2023-02-15T23:31:34.208Z,41.05
2023-02-15T23:34:29.050Z,37.47
2023-02-15T23:37:19.123Z,39.83
2023-02-15T23:40:33.055Z,38.45
2023-02-15T23:46:25.818Z,35.92
2023-02-15T23:49:18.996Z,40.45
2023-02-15T23:52:12.533Z,40.15
2023-02-15T23:55:00.342Z,39.67
2023-02-15T23:57:50.708Z,34.50
